• Join FlightAware (Why Join?)
  • Login
  • US Flag 
09:21PM EDT


 

Airport Tracker/Info


-or-


 

Live Flight TrackerFlight Track Log ✈ KAP305 ✈ 11-Jun-2013 ✈ KALB - KBOS

Flight Track Log - Related Links

Times and Time Zones

All times are in EDT time to prevent confusion due to time zone crossing. See the KAP305 flight status page for this flight to view local times or setup timezone preferences in your user account.

Time Position Orientation Groundspeed Altitude Reporting Facility
EDT Latitude Longitude Course Direction KTS MPH feet Rate Location/Type
07:53AM 42.7489 -73.7831 78° East 120 138 1,000  Level Boston Center
07:53AM 42.7511 -73.7689 78° East 117 135 1,500 1,020 Climbing Boston Center
07:54AM 42.7536 -73.7294 85° East 106 122 2,400 780 Climbing Boston Center
07:55AM 42.7583 -73.6842 82° East 124 143 3,100 660 Climbing Boston Center
07:56AM 42.7611 -73.6306 86° East 145 167 3,800 780 Climbing Boston Center
07:57AM 42.7636 -73.5683 87° East 155 178 4,700 780 Climbing Boston Center
07:58AM 42.7683 -73.5092 84° East 156 180 5,400 720 Climbing Boston Center
07:59AM 42.7711 -73.4469 86° East 159 183 6,300 720 Climbing Boston Center
08:00AM 42.7733 -73.4131 85° East 156 180 6,600 720 Climbing Boston Center
08:00AM 42.7756 -73.3961 80° East 158 182 6,900 360 Climbing Boston Center
08:01AM 42.7781 -73.3622 84° East 176 203 7,000 60 Climbing Boston Center
08:02AM 42.7642 -73.2886 104° East 182 209 7,100  Climbing Boston Center
08:03AM 42.7481 -73.2064 105° East 182 209 7,000 -60 Descending Boston Center
08:04AM 42.7400 -73.1467 100° East 182 209 7,000  Level Boston Center
08:05AM 42.7258 -73.0703 104° East 182 209 7,000  Level Boston Center
08:06AM 42.7158 -73.0081 102° East 182 209 7,000  Level Boston Center
08:07AM 42.7056 -72.9403 102° East 182 209 7,000  Level Boston Center
08:08AM 42.6933 -72.8722 104° East 182 209 7,000  Level Boston Center
08:09AM 42.6792 -72.8044 106° East 182 209 7,000  Level Boston Center
08:10AM 42.6647 -72.7281 104° East 182 209 7,000  Level Boston Center
08:11AM 42.6544 -72.6631 102° East 182 209 7,000  Level Boston Center
08:12AM 42.6419 -72.5953 104° East 182 209 7,000  Level Boston Center
08:13AM 42.6317 -72.5192 100° East 182 209 7,000  Level Boston Center
08:14AM 42.6192 -72.4514 104° East 182 209 7,000  Level Boston Center
08:15AM 42.6067 -72.3781 103° East 182 209 7,000  Level Boston Center
08:16AM 42.5961 -72.3103 102° East 182 209 7,000  Level Boston Center
08:17AM 42.5836 -72.2369 103° East 194 223 7,000  Level Boston Center
08:18AM 42.5731 -72.1667 102° East 189 217 7,000  Level Boston Center
08:19AM 42.5625 -72.0989 102° East 189 217 7,000  Level Boston Center
08:20AM 42.5517 -72.0286 102° East 183 211 7,000  Level Boston Center
08:21AM 42.5411 -71.9583 101° East 183 211 7,000  Level Boston Center
08:22AM 42.5303 -71.8906 102° East 183 211 7,000  Level Boston Center
08:23AM 42.5239 -71.8203 97° East 183 211 7,000  Level Boston Center
08:24AM 42.5131 -71.7528 102° East 183 211 7,000  Level Boston Center
08:25AM 42.5083 -71.6825 95° East 183 211 7,000  Level Boston Center
08:26AM 42.5017 -71.6122 97° East 183 211 7,000  Level Boston Center
08:27AM 42.4969 -71.5447 95° East 183 211 7,000  Level Boston Center
08:28AM 42.4900 -71.4744 98° East 183 211 7,000 -420 Level Boston Center
08:29AM 42.4831 -71.3956 97° East 193 222 6,200 -660 Descending Boston Center
08:30AM 42.4783 -71.3225 95° East 198 228 5,700 -660 Descending Boston Center
08:31AM 42.4667 -71.2500 102° East 201 231 5,000 -360 Descending KA90
08:32AM 42.4500 -71.2000 114° Southeast 172 198 5,000  Level KA90
08:33AM 42.4000 -71.1500 144° Southeast 167 192 5,000  Level KA90
08:34AM 42.3678 -71.1361 162° South 166 191 5,000 -420 Level Boston Center
08:35AM 42.3264 -71.1539 198° South 152 175 4,300 -720 Descending Boston Center
08:37AM 42.2333 -71.1667 186° South 172 198 2,900 -660 Descending KA90
08:38AM 42.2000 -71.1167 132° Southeast 184 212 2,400 -540 Descending KA90
08:39AM 42.2333 -71.0667 48° Northeast 189 217 2,000 -240 Descending KA90
08:40AM 42.2667 -71.0500 20° North 166 191 2,000 -300 Level KA90
08:41AM 42.3167 -71.0333 14° North 146 168 1,400 -900 Descending KA90
08:42AM 42.3500 -71.0167 20° North 136 157 300 -1,140 Descending KA90
08:44AM 42.3630 -71.0064 31° Northeast  Level Estimated